Time;durP1;ratioP1;P1;durP2;ratioP2;P2;SDS_P1;SDS_P2;PMS_P1;PMS_P2;Temp;Humidity;BMP_temperature;BMP_pressure;BME280_temperature;BME280_humidity;BME280_pressure;Samples;Min_cycle;Max_cycle;Signal;HPM_P1;HPM_P2
2023/03/18 00:00:10;;;;;;;;;;;14.10;99.90;;;;;;7403450;19;19930;-73
2023/03/18 00:02:40;;;;;;;17.63;2.53;;;14.10;99.90;;;;;;7402196;19;19960;-73
2023/03/18 00:05:08;;;;;;;18.63;2.90;;;14.20;99.90;;;;;;7402673;19;19917;-73
2023/03/18 00:07:37;;;;;;;20.02;3.05;;;14.10;99.90;;;;;;7406681;19;19985;-73
2023/03/18 00:10:06;;;;;;;18.63;2.63;;;14.10;99.90;;;;;;7406753;19;19964;-73
2023/03/18 00:12:32;;;;;;;17.48;2.70;;;14.10;99.90;;;;;;7409411;19;19922;-73
2023/03/18 00:14:58;;;;;;;18.15;2.35;;;14.10;99.90;;;;;;7403398;19;19915;-73
2023/03/18 00:17:24;;;;;;;20.27;3.15;;;14.00;99.90;;;;;;7402789;19;19986;-74
2023/03/18 00:19:51;;;;;;;20.10;2.85;;;13.90;99.90;;;;;;7408064;19;19928;-72
2023/03/18 00:22:17;;;;;;;20.33;3.30;;;14.00;99.90;;;;;;7404279;19;19942;-72
2023/03/18 00:24:43;;;;;;;18.42;2.58;;;14.00;99.90;;;;;;7373918;19;19948;-72
2023/03/18 00:27:09;;;;;;;20.08;2.83;;;14.00;99.90;;;;;;7405062;19;20258;-74
2023/03/18 00:29:35;;;;;;;20.15;2.85;;;14.00;99.90;;;;;;7406170;19;19929;-73
2023/03/18 00:32:01;;;;;;;19.30;3.30;;;14.00;99.90;;;;;;7407681;19;19926;-73
2023/03/18 00:34:27;;;;;;;11.88;2.17;;;14.00;99.90;;;;;;7403355;19;19925;-73
2023/03/18 00:36:55;;;;;;;21.83;2.55;;;13.90;99.90;;;;;;7408304;19;19935;-73
2023/03/18 00:39:25;;;;;;;16.95;2.70;;;13.90;99.90;;;;;;7405146;19;19914;-73
2023/03/18 00:41:55;;;;;;;20.25;3.00;;;13.80;99.90;;;;;;7402135;19;19922;-72
2023/03/18 00:44:20;;;;;;;16.75;2.22;;;13.80;99.90;;;;;;7402086;19;19938;-73
2023/03/18 00:46:46;;;;;;;19.35;3.20;;;13.80;99.90;;;;;;7404219;19;19982;-73
2023/03/18 00:49:13;;;;;;;22.70;3.08;;;13.80;99.90;;;;;;7406200;19;19956;-72
2023/03/18 00:51:40;;;;;;;21.05;3.08;;;13.80;99.90;;;;;;7407598;19;19923;-72
2023/03/18 00:54:09;;;;;;;26.08;2.78;;;13.80;99.90;;;;;;7402788;19;19918;-73
2023/03/18 00:56:38;;;;;;;16.67;2.53;;;13.80;99.90;;;;;;7406878;19;19926;-73
2023/03/18 00:59:07;;;;;;;21.90;3.67;;;13.80;99.90;;;;;;7403049;19;19935;-75
2023/03/18 01:01:33;;;;;;;15.48;2.83;;;13.80;99.90;;;;;;7404126;19;19975;-73
2023/03/18 01:03:59;;;;;;;21.25;3.25;;;13.80;99.90;;;;;;7404899;19;19914;-74
2023/03/18 01:06:28;;;;;;;19.10;2.50;;;13.80;99.90;;;;;;7400190;19;19934;-72
2023/03/18 01:08:55;;;;;;;16.45;2.67;;;13.80;99.90;;;;;;7402862;19;19921;-72
2023/03/18 01:11:22;;;;;;;21.05;3.17;;;13.80;99.90;;;;;;7404673;19;20904;-73
2023/03/18 01:13:48;;;;;;;19.40;3.03;;;13.70;99.90;;;;;;7405002;19;19914;-73
2023/03/18 01:16:15;;;;;;;21.45;2.90;;;13.70;99.90;;;;;;7374001;19;19959;-73
2023/03/18 01:18:41;;;;;;;20.35;2.92;;;13.70;99.90;;;;;;7407260;19;19950;-72
2023/03/18 01:21:09;;;;;;;21.85;3.45;;;13.70;99.90;;;;;;7400774;19;20327;-73
2023/03/18 01:23:35;;;;;;;22.85;2.97;;;13.60;99.90;;;;;;7402789;19;19917;-73
2023/03/18 01:26:02;;;;;;;28.55;3.83;;;13.70;99.90;;;;;;7402093;19;19929;-73
2023/03/18 01:28:28;;;;;;;23.33;2.72;;;13.70;99.90;;;;;;7399574;19;19918;-74
2023/03/18 01:30:56;;;;;;;19.80;3.10;;;13.70;99.90;;;;;;7406395;19;19926;-73
2023/03/18 01:33:22;;;;;;;18.00;2.70;;;13.60;99.90;;;;;;7404552;19;20315;-73
2023/03/18 01:35:57;;;;;;;24.67;3.60;;;13.60;99.90;;;;;;7372399;19;20010;-74
2023/03/18 01:38:24;;;;;;;27.35;4.90;;;13.50;99.90;;;;;;7401432;19;20377;-74
2023/03/18 01:40:53;;;;;;;20.52;3.63;;;13.50;99.90;;;;;;7405847;19;19919;-73
2023/03/18 01:43:32;;;;;;;24.92;3.83;;;13.50;99.90;;;;;;7404161;19;19923;-73
2023/03/18 01:46:01;;;;;;;26.40;3.97;;;13.50;99.90;;;;;;7406247;19;19923;-75
2023/03/18 01:48:38;;;;;;;22.98;3.53;;;13.50;99.90;;;;;;7402050;19;19910;-74
2023/03/18 01:51:07;;;;;;;17.65;3.60;;;13.60;99.90;;;;;;7403654;19;20335;-73
2023/03/18 01:53:41;;;;;;;21.63;3.90;;;13.50;99.90;;;;;;7403776;19;20375;-73
2023/03/18 01:56:08;;;;;;;24.25;3.55;;;13.60;99.90;;;;;;7401905;19;19941;-73
2023/03/18 01:58:39;;;;;;;26.90;3.97;;;13.60;99.90;;;;;;7404699;19;19933;-73
2023/03/18 02:01:16;;;;;;;25.10;4.07;;;13.60;99.90;;;;;;7402968;19;19921;-74
2023/03/18 02:03:43;;;;;;;16.23;3.42;;;13.60;99.90;;;;;;7403367;19;19986;-73
2023/03/18 02:06:11;;;;;;;16.35;3.28;;;13.60;99.90;;;;;;7401913;19;19918;-73
2023/03/18 02:08:38;;;;;;;21.98;3.28;;;13.50;99.90;;;;;;7403089;19;19974;-72
2023/03/18 02:11:04;;;;;;;19.10;4.22;;;13.60;99.90;;;;;;7400525;19;20334;-73
2023/03/18 02:13:31;;;;;;;19.42;3.33;;;13.60;99.90;;;;;;7402423;19;19910;-74
2023/03/18 02:16:13;;;;;;;18.38;3.33;;;13.50;99.90;;;;;;7403666;19;19921;-72
2023/03/18 02:18:53;;;;;;;19.73;3.35;;;13.50;99.90;;;;;;7401029;19;19915;-74
2023/03/18 02:21:25;;;;;;;13.30;3.33;;;13.50;99.90;;;;;;7403368;19;19974;-73
2023/03/18 02:24:09;;;;;;;21.70;3.78;;;13.50;99.90;;;;;;7402327;19;19926;-73
2023/03/18 02:26:44;;;;;;;18.73;3.15;;;13.50;99.90;;;;;;7403278;19;19927;-73
2023/03/18 02:29:13;;;;;;;17.60;3.42;;;13.50;99.90;;;;;;7403098;19;19918;-73
2023/03/18 02:31:42;;;;;;;20.77;3.28;;;13.50;99.90;;;;;;7403254;19;19919;-73
2023/03/18 02:34:10;;;;;;;17.08;3.22;;;13.50;99.90;;;;;;7401006;19;19928;-72
2023/03/18 02:36:36;;;;;;;19.92;2.90;;;13.50;99.90;;;;;;7402274;19;19917;-74
2023/03/18 02:39:03;;;;;;;18.20;3.13;;;13.50;99.90;;;;;;7397764;19;20647;-73
2023/03/18 02:41:32;;;;;;;16.90;2.92;;;13.50;99.90;;;;;;7404094;19;20466;-73
2023/03/18 02:43:58;;;;;;;19.60;4.00;;;13.50;99.90;;;;;;7400655;19;20473;-73
2023/03/18 02:46:33;;;;;;;18.38;3.00;;;13.50;99.90;;;;;;7399450;19;19918;-72
2023/03/18 02:49:01;;;;;;;20.98;3.05;;;13.50;99.90;;;;;;7402361;19;19935;-74
2023/03/18 02:51:27;;;;;;;17.70;3.15;;;13.50;99.90;;;;;;7399415;19;19947;-72
2023/03/18 02:54:09;;;;;;;15.32;3.08;;;13.50;99.90;;;;;;7402540;19;20001;-73
2023/03/18 02:56:37;;;;;;;20.02;2.90;;;13.50;99.90;;;;;;7401542;19;19927;-73
2023/03/18 02:59:03;;;;;;;22.73;3.63;;;13.50;99.90;;;;;;7394854;19;19939;-73
2023/03/18 03:01:31;;;;;;;19.23;3.30;;;13.50;99.90;;;;;;7398260;19;20229;-73
2023/03/18 03:03:57;;;;;;;17.73;2.72;;;13.50;99.90;;;;;;7400119;19;19941;-73
2023/03/18 03:06:24;;;;;;;17.13;2.97;;;13.50;99.90;;;;;;7397987;19;19939;-73
2023/03/18 03:08:50;;;;;;;19.23;3.25;;;13.50;99.90;;;;;;7401383;19;19947;-73
2023/03/18 03:11:17;;;;;;;18.23;3.03;;;13.50;99.90;;;;;;7402435;19;19922;-72
2023/03/18 03:13:46;;;;;;;19.63;2.80;;;13.60;99.90;;;;;;7398334;19;19906;-74
2023/03/18 03:16:16;;;;;;;15.60;3.30;;;13.50;99.90;;;;;;7396967;19;20400;-73
2023/03/18 03:18:43;;;;;;;18.63;3.13;;;13.50;99.90;;;;;;7401145;19;19925;-73
2023/03/18 03:21:10;;;;;;;13.68;3.17;;;13.40;99.90;;;;;;7395567;19;19941;-72
2023/03/18 03:23:36;;;;;;;16.40;2.75;;;13.30;99.90;;;;;;7398186;19;20000;-72
2023/03/18 03:26:03;;;;;;;15.35;2.70;;;13.30;99.90;;;;;;7400173;19;19925;-73
2023/03/18 03:28:31;;;;;;;17.33;3.13;;;13.30;99.90;;;;;;7400322;19;19918;-73
2023/03/18 03:30:58;;;;;;;15.70;2.78;;;13.30;99.90;;;;;;7403298;19;20300;-74
2023/03/18 03:33:24;;;;;;;;;;;13.20;99.90;;;;;;7384641;19;21013;-73
2023/03/18 03:35:51;;;;;;;18.13;2.65;;;13.20;99.90;;;;;;7405916;19;19931;-73
2023/03/18 03:38:17;;;;;;;;;;;13.20;99.90;;;;;;7409609;19;19925;-73
2023/03/18 03:40:43;;;;;;;14.18;2.50;;;13.20;99.90;;;;;;7406415;19;19918;-73
2023/03/18 03:43:14;;;;;;;16.08;2.58;;;13.20;99.90;;;;;;7373698;19;19921;-73
2023/03/18 03:45:41;;;;;;;18.42;2.78;;;13.30;99.90;;;;;;7402749;19;20324;-73
2023/03/18 03:48:07;;;;;;;17.50;2.67;;;13.30;99.90;;;;;;7404416;19;20246;-72
2023/03/18 03:50:34;;;;;;;16.42;2.75;;;13.30;99.90;;;;;;7407430;19;19930;-73
2023/03/18 03:53:01;;;;;;;17.10;3.00;;;13.30;99.90;;;;;;7384699;19;19910;-73
2023/03/18 03:55:27;;;;;;;;;;;13.30;99.90;;;;;;7405851;19;19911;-73
2023/03/18 03:57:53;;;;;;;17.25;2.40;;;13.40;99.90;;;;;;7406752;19;19930;-73
2023/03/18 04:00:21;;;;;;;18.92;2.38;;;13.40;99.90;;;;;;7403016;19;19919;-72
2023/03/18 04:02:48;;;;;;;13.45;2.30;;;13.40;99.90;;;;;;7406084;19;19919;-74
2023/03/18 04:05:16;;;;;;;18.75;2.90;;;13.30;99.90;;;;;;7403408;19;20354;-74
2023/03/18 04:07:43;;;;;;;14.15;2.20;;;13.30;99.90;;;;;;7403702;19;19919;-73
2023/03/18 04:10:10;;;;;;;;;;;13.20;99.90;;;;;;7405267;19;20798;-73
2023/03/18 04:12:37;;;;;;;16.90;2.17;;;13.00;99.90;;;;;;7405114;19;19919;-74
2023/03/18 04:15:04;;;;;;;18.77;2.90;;;13.00;99.90;;;;;;7405011;19;19910;-73
2023/03/18 04:17:30;;;;;;;20.23;2.50;;;12.90;99.90;;;;;;7404720;19;19910;-72
2023/03/18 04:19:56;;;;;;;17.65;2.80;;;12.80;99.90;;;;;;7405777;19;19942;-73
2023/03/18 04:22:22;;;;;;;17.08;2.85;;;12.80;99.90;;;;;;7405447;19;19914;-72
2023/03/18 04:24:48;;;;;;;18.35;2.45;;;12.70;99.90;;;;;;7403706;19;19919;-73
2023/03/18 04:27:14;;;;;;;13.98;3.00;;;12.70;99.90;;;;;;7372858;19;19951;-76
2023/03/18 04:29:40;;;;;;;22.88;2.80;;;12.60;99.90;;;;;;7405677;19;19926;-73
2023/03/18 04:32:06;;;;;;;14.07;2.13;;;12.60;99.90;;;;;;7401636;19;19948;-72
2023/03/18 04:34:32;;;;;;;17.40;2.50;;;12.50;99.90;;;;;;7406067;19;19922;-73
2023/03/18 04:36:58;;;;;;;18.55;2.47;;;12.50;99.90;;;;;;7403534;19;19919;-74
2023/03/18 04:39:24;;;;;;;16.83;2.85;;;12.50;99.90;;;;;;7400994;19;19910;-72
2023/03/18 04:41:50;;;;;;;15.00;2.55;;;12.40;99.90;;;;;;7404421;19;19977;-73
2023/03/18 04:44:16;;;;;;;13.80;2.63;;;12.40;99.90;;;;;;7399999;19;19974;-74
2023/03/18 04:46:42;;;;;;;18.60;2.92;;;12.40;99.90;;;;;;7383631;19;20317;-74
2023/03/18 04:49:09;;;;;;;15.95;2.03;;;12.40;99.90;;;;;;7401715;19;19911;-73
2023/03/18 04:51:36;;;;;;;11.60;2.40;;;12.30;99.90;;;;;;7403204;19;19954;-72
2023/03/18 04:54:02;;;;;;;11.93;2.17;;;12.40;99.90;;;;;;7398793;19;20355;-72
2023/03/18 04:56:28;;;;;;;13.48;2.20;;;12.40;99.90;;;;;;7404005;19;19946;-74
2023/03/18 04:58:54;;;;;;;19.67;2.42;;;12.30;99.90;;;;;;7405827;19;19919;-73
2023/03/18 05:01:20;;;;;;;12.55;2.50;;;12.30;99.90;;;;;;7402168;19;19950;-73
2023/03/18 05:03:46;;;;;;;14.45;2.35;;;12.30;99.90;;;;;;7405047;19;20326;-73
2023/03/18 05:06:32;;;;;;;15.20;2.35;;;12.20;99.90;;;;;;7402061;19;19910;-73
2023/03/18 05:08:58;;;;;;;14.75;2.22;;;12.20;99.90;;;;;;7403808;19;20267;-73
2023/03/18 05:11:25;;;;;;;14.07;2.47;;;12.20;99.90;;;;;;7404227;19;19911;-72
2023/03/18 05:13:51;;;;;;;15.00;2.13;;;12.20;99.90;;;;;;7402917;19;19986;-74
2023/03/18 05:16:17;;;;;;;9.90;1.77;;;12.20;99.90;;;;;;7402431;19;20270;-74
2023/03/18 05:18:44;;;;;;;14.48;2.35;;;12.20;99.90;;;;;;7402098;19;19942;-74
2023/03/18 05:21:10;;;;;;;13.05;2.08;;;12.20;99.90;;;;;;7403103;19;19914;-74
2023/03/18 05:23:36;;;;;;;14.55;2.30;;;12.10;99.90;;;;;;7405781;19;19918;-72
2023/03/18 05:26:04;;;;;;;14.15;2.47;;;12.10;99.90;;;;;;7402198;19;19918;-73
2023/03/18 05:28:30;;;;;;;12.02;2.15;;;12.10;99.90;;;;;;7383965;19;20228;-74
2023/03/18 05:30:56;;;;;;;12.80;1.92;;;12.10;99.90;;;;;;7401481;19;20371;-73
2023/03/18 05:33:22;;;;;;;12.20;2.17;;;12.10;99.90;;;;;;7403846;19;19938;-73
2023/03/18 05:35:48;;;;;;;18.38;2.00;;;12.10;99.90;;;;;;7400991;19;19914;-73
2023/03/18 05:38:14;;;;;;;16.20;2.00;;;12.20;99.90;;;;;;7401076;19;20011;-73
2023/03/18 05:40:42;;;;;;;13.13;1.80;;;12.20;99.90;;;;;;7401316;19;19922;-73
2023/03/18 05:43:08;;;;;;;17.38;3.17;;;12.30;99.90;;;;;;7402845;19;19993;-74
2023/03/18 05:45:33;;;;;;;14.40;2.17;;;12.40;99.90;;;;;;7401822;19;20328;-72
2023/03/18 05:47:59;;;;;;;10.27;2.03;;;12.50;99.90;;;;;;7401856;19;19922;-73
2023/03/18 05:50:34;;;;;;;11.52;2.42;;;12.50;99.90;;;;;;7402103;19;19922;-74
2023/03/18 05:53:01;;;;;;;8.98;2.13;;;12.60;99.90;;;;;;7397521;19;19915;-73
2023/03/18 05:55:28;;;;;;;10.23;2.20;;;12.60;99.90;;;;;;7401594;19;20244;-73
2023/03/18 05:57:55;;;;;;;13.85;2.22;;;12.70;99.90;;;;;;7401138;19;19919;-74
2023/03/18 06:00:21;;;;;;;11.70;2.53;;;12.70;99.90;;;;;;7400432;19;19918;-73
2023/03/18 06:02:47;;;;;;;17.17;2.60;;;12.80;99.90;;;;;;7403503;19;20005;-73
2023/03/18 06:05:14;;;;;;;9.10;2.10;;;12.80;99.90;;;;;;7403421;19;19921;-74
2023/03/18 06:07:40;;;;;;;12.90;1.77;;;12.90;99.90;;;;;;7403824;19;19926;-73
2023/03/18 06:10:07;;;;;;;14.80;2.35;;;13.00;99.90;;;;;;7400272;19;19918;-75
2023/03/18 06:12:33;;;;;;;10.70;2.20;;;13.00;99.90;;;;;;7404386;19;19927;-73
2023/03/18 06:15:01;;;;;;;15.80;2.50;;;13.10;99.90;;;;;;7404534;19;19924;-74
2023/03/18 06:17:27;;;;;;;15.20;2.65;;;13.10;99.90;;;;;;7400816;19;19923;-73
2023/03/18 06:19:53;;;;;;;16.38;2.55;;;13.10;99.90;;;;;;7352187;19;20339;-74
2023/03/18 06:22:19;;;;;;;12.75;2.15;;;13.10;99.90;;;;;;7397891;19;19921;-73
2023/03/18 06:24:46;;;;;;;11.13;1.83;;;13.10;99.90;;;;;;7399452;19;20331;-72
2023/03/18 06:27:12;;;;;;;14.90;2.28;;;13.10;99.90;;;;;;7402176;19;19910;-74
2023/03/18 06:29:38;;;;;;;15.38;2.13;;;13.20;99.90;;;;;;7369977;19;20335;-74
2023/03/18 06:32:05;;;;;;;17.25;3.05;;;13.20;99.90;;;;;;7398506;19;19974;-74
2023/03/18 06:34:30;;;;;;;13.57;2.10;;;13.20;99.90;;;;;;7401698;19;19938;-74
2023/03/18 06:36:56;;;;;;;13.32;2.65;;;13.20;99.90;;;;;;7403068;19;20023;-73
2023/03/18 06:39:22;;;;;;;10.02;2.20;;;13.20;99.90;;;;;;7400730;19;20311;-73
2023/03/18 06:41:48;;;;;;;10.65;1.90;;;13.30;99.90;;;;;;7402204;19;19982;-73
2023/03/18 06:44:14;;;;;;;12.70;2.03;;;13.30;99.90;;;;;;7367269;19;19915;-72
2023/03/18 06:46:40;;;;;;;14.27;2.40;;;13.40;99.90;;;;;;7402470;19;19923;-73
2023/03/18 06:49:07;;;;;;;13.30;2.38;;;13.50;99.90;;;;;;7400748;19;20276;-73
2023/03/18 06:51:33;;;;;;;13.95;2.17;;;13.60;99.90;;;;;;7398051;19;19915;-73
2023/03/18 06:53:59;;;;;;;15.35;2.50;;;13.60;99.90;;;;;;7399363;19;19935;-73
2023/03/18 06:56:25;;;;;;;11.48;2.30;;;13.80;99.90;;;;;;7402480;19;19918;-73
2023/03/18 06:58:51;;;;;;;14.13;2.13;;;13.80;99.90;;;;;;7398535;19;20533;-73
2023/03/18 07:01:18;;;;;;;12.82;3.05;;;13.90;99.90;;;;;;7396705;19;19956;-74
2023/03/18 07:03:44;;;;;;;12.48;2.08;;;13.90;99.90;;;;;;7396130;19;19919;-73
2023/03/18 07:06:10;;;;;;;9.32;1.92;;;14.00;99.90;;;;;;7376802;19;19918;-74
2023/03/18 07:08:37;;;;;;;17.02;2.40;;;14.20;99.90;;;;;;7398909;19;20755;-73
2023/03/18 07:11:03;;;;;;;16.40;2.58;;;14.30;99.90;;;;;;7398012;19;20300;-73
2023/03/18 07:13:29;;;;;;;11.05;2.55;;;14.30;99.90;;;;;;7403278;19;19922;-74
2023/03/18 07:15:55;;;;;;;13.10;2.88;;;14.40;99.90;;;;;;7398429;19;19915;-73
2023/03/18 07:18:22;;;;;;;14.50;2.20;;;14.50;99.90;;;;;;7401938;19;19922;-74
2023/03/18 07:20:48;;;;;;;;;;;14.50;99.90;;;;;;7401809;19;19940;-73
2023/03/18 07:23:14;;;;;;;15.25;2.20;;;14.50;99.90;;;;;;7402560;19;20777;-73
2023/03/18 07:25:41;;;;;;;11.48;2.42;;;14.40;99.90;;;;;;7377992;19;19918;-73
2023/03/18 07:28:07;;;;;;;12.00;2.42;;;14.40;99.20;;;;;;7397470;19;20577;-74
2023/03/18 07:30:33;;;;;;;12.18;2.35;;;14.40;99.30;;;;;;7400314;19;19936;-74
2023/03/18 07:32:59;;;;;;;12.57;2.42;;;14.50;99.10;;;;;;7372895;19;20375;-74
2023/03/18 07:35:24;;;;;;;13.70;2.58;;;14.60;99.20;;;;;;7397500;19;19931;-74
2023/03/18 07:37:51;;;;;;;12.32;2.25;;;14.50;99.20;;;;;;7401205;19;19918;-73
2023/03/18 07:40:17;;;;;;;13.55;2.45;;;14.70;99.30;;;;;;7367973;19;19917;-73
2023/03/18 07:42:44;;;;;;;16.88;2.50;;;14.70;99.10;;;;;;7401886;19;19919;-73
2023/03/18 07:45:10;;;;;;;12.07;2.80;;;14.70;99.30;;;;;;7396347;19;19958;-73
2023/03/18 07:47:36;;;;;;;12.40;2.50;;;14.60;99.20;;;;;;7402011;19;19926;-72
2023/03/18 07:50:03;;;;;;;11.07;2.75;;;14.80;99.10;;;;;;7394482;19;19911;-73
2023/03/18 07:52:29;;;;;;;12.23;2.70;;;14.90;99.00;;;;;;7401042;19;19915;-72
2023/03/18 07:54:55;;;;;;;11.25;2.35;;;14.90;98.80;;;;;;7400354;19;20677;-73
2023/03/18 07:57:21;;;;;;;13.43;2.10;;;14.90;98.60;;;;;;7399295;19;19918;-75
2023/03/18 07:59:47;;;;;;;14.45;2.70;;;15.10;98.70;;;;;;7400123;19;20254;-73
2023/03/18 08:02:14;;;;;;;11.95;2.60;;;15.30;97.80;;;;;;7396617;19;19918;-73
2023/03/18 08:04:42;;;;;;;12.27;2.35;;;15.40;97.40;;;;;;7396577;19;19907;-74
2023/03/18 08:07:08;;;;;;;12.20;2.75;;;15.50;97.10;;;;;;7395744;19;19929;-72
2023/03/18 08:09:35;;;;;;;15.02;3.05;;;15.70;96.60;;;;;;7400417;19;20007;-73
2023/03/18 08:12:01;;;;;;;18.05;2.80;;;15.70;96.30;;;;;;7398996;19;19927;-73
2023/03/18 08:14:27;;;;;;;14.07;2.65;;;15.70;96.30;;;;;;7398208;19;19965;-74
2023/03/18 08:16:53;;;;;;;18.20;2.75;;;15.70;96.30;;;;;;7403590;19;20339;-73
2023/03/18 08:19:20;;;;;;;17.05;2.45;;;15.70;96.30;;;;;;7405466;19;20262;-73
2023/03/18 08:21:46;;;;;;;12.40;3.10;;;15.70;96.60;;;;;;7404345;19;19994;-73
2023/03/18 08:24:13;;;;;;;16.58;2.85;;;15.80;96.40;;;;;;7405377;19;20359;-74
2023/03/18 08:26:39;;;;;;;18.02;3.33;;;15.80;96.50;;;;;;7373238;19;20433;-77
2023/03/18 08:29:05;;;;;;;18.85;2.83;;;16.00;96.20;;;;;;7399995;19;20641;-73
2023/03/18 08:31:31;;;;;;;15.85;2.72;;;16.10;96.00;;;;;;7404690;19;19937;-77
2023/03/18 08:33:59;;;;;;;14.60;2.80;;;16.20;95.90;;;;;;7403477;19;19914;-74
2023/03/18 08:36:26;;;;;;;17.08;2.97;;;16.30;95.90;;;;;;7405862;19;20264;-73
2023/03/18 08:38:55;;;;;;;14.32;2.60;;;16.50;95.60;;;;;;7402185;19;19911;-73
2023/03/18 08:41:22;;;;;;;11.20;2.63;;;16.70;95.20;;;;;;7371713;19;20586;-73
2023/03/18 08:43:48;;;;;;;13.32;2.78;;;16.80;95.10;;;;;;7403121;19;20392;-72
2023/03/18 08:46:14;;;;;;;;;;;17.00;95.10;;;;;;7404675;19;19914;-74
2023/03/18 08:48:41;;;;;;;17.20;2.38;;;17.20;95.00;;;;;;7405826;19;19907;-74
2023/03/18 08:51:07;;;;;;;16.60;2.97;;;18.10;93.90;;;;;;7401980;19;20020;-74
2023/03/18 08:53:34;;;;;;;14.55;2.53;;;19.00;92.60;;;;;;7403443;19;20339;-74
2023/03/18 08:56:01;;;;;;;16.10;2.45;;;19.00;92.40;;;;;;7405980;19;19914;-76
2023/03/18 08:58:28;;;;;;;19.30;2.85;;;19.00;91.90;;;;;;7404174;19;19929;-77
2023/03/18 09:00:54;;;;;;;15.52;2.95;;;18.70;92.30;;;;;;7404298;19;20013;-74
2023/03/18 09:03:23;;;;;;;14.95;2.53;;;18.00;93.10;;;;;;7394566;19;19919;-74
2023/03/18 09:05:49;;;;;;;17.33;2.97;;;17.70;93.60;;;;;;7405730;19;20019;-76
2023/03/18 09:08:15;;;;;;;;;;;17.70;93.90;;;;;;7406707;19;19919;-74
2023/03/18 09:10:43;;;;;;;15.20;3.20;;;17.60;93.80;;;;;;7402761;19;19951;-75
2023/03/18 09:13:09;;;;;;;15.57;3.28;;;17.40;94.00;;;;;;7384789;19;19910;-75
2023/03/18 09:15:34;;;;;;;17.60;2.80;;;17.70;93.80;;;;;;7402069;19;19926;-76
2023/03/18 09:18:01;;;;;;;17.10;3.13;;;18.00;93.10;;;;;;7400459;19;19918;-77
2023/03/18 09:20:27;;;;;;;17.40;3.00;;;18.00;93.40;;;;;;7404387;19;19918;-75
2023/03/18 09:22:53;;;;;;;15.32;2.67;;;18.00;92.80;;;;;;7404468;19;19966;-75
2023/03/18 09:25:19;;;;;;;13.70;2.28;;;17.80;92.80;;;;;;7373568;19;19946;-76
2023/03/18 09:27:48;;;;;;;12.00;2.80;;;17.40;93.30;;;;;;7403327;19;20620;-75
2023/03/18 09:30:14;;;;;;;15.32;2.75;;;17.20;93.50;;;;;;7398873;19;19942;-75
2023/03/18 09:32:40;;;;;;;14.70;3.00;;;17.10;93.80;;;;;;7408296;19;19914;-75
2023/03/18 09:35:08;;;;;;;15.77;3.33;;;16.80;94.00;;;;;;7406062;19;19919;-76
2023/03/18 09:37:35;;;;;;;16.65;2.50;;;16.50;94.60;;;;;;7397544;19;20308;-75
2023/03/18 09:40:00;;;;;;;12.63;2.63;;;16.60;94.50;;;;;;7396731;19;19915;-77
2023/03/18 09:42:48;;;;;;;11.90;2.70;;;16.50;94.20;;;;;;7411941;19;19914;-76
2023/03/18 09:45:27;;;;;;;10.32;1.83;;;16.50;93.50;;;;;;7397975;19;19918;-76
2023/03/18 09:48:20;;;;;;;15.32;2.17;;;16.30;93.60;;;;;;7388412;19;19935;-75
2023/03/18 09:51:07;;;;;;;17.77;2.38;;;16.10;94.40;;;;;;7395697;19;19918;-75
2023/03/18 09:53:51;;;;;;;13.88;2.88;;;16.10;94.70;;;;;;7405758;19;19922;-77
2023/03/18 09:56:21;;;;;;;13.18;2.03;;;16.00;94.60;;;;;;7400687;19;20675;-76
2023/03/18 09:59:20;;;;;;;11.98;2.33;;;15.80;94.90;;;;;;7404136;19;19914;-77
2023/03/18 10:01:48;;;;;;;16.85;2.75;;;15.80;95.20;;;;;;7400028;19;19919;-74
2023/03/18 10:04:43;;;;;;;11.73;2.45;;;15.80;95.30;;;;;;7401275;19;19945;-75
2023/03/18 10:07:18;;;;;;;14.65;2.40;;;15.90;95.20;;;;;;7402607;19;20556;-75
2023/03/18 10:09:59;;;;;;;13.20;2.13;;;16.00;94.90;;;;;;7403895;19;19938;-74
2023/03/18 10:12:36;;;;;;;11.75;2.17;;;16.20;94.80;;;;;;7402319;19;19927;-74
2023/03/18 10:15:11;;;;;;;14.73;2.83;;;16.20;94.50;;;;;;7405345;19;20227;-75
2023/03/18 10:17:48;;;;;;;12.23;2.65;;;16.30;94.40;;;;;;7405948;19;19918;-75
2023/03/18 10:20:52;;;;;;;11.75;2.50;;;16.40;94.10;;;;;;7401972;19;19925;-77
2023/03/18 10:23:36;;;;;;;11.10;2.42;;;16.50;94.00;;;;;;7398847;19;19931;-76
2023/03/18 10:26:25;;;;;;;13.05;3.08;;;16.70;93.70;;;;;;7395960;19;19919;-76
2023/03/18 10:29:01;;;;;;;12.57;2.03;;;16.70;93.60;;;;;;7401715;19;19960;-74
2023/03/18 10:31:51;;;;;;;18.58;2.75;;;16.90;93.60;;;;;;7401960;19;19926;-75
2023/03/18 10:34:47;;;;;;;13.23;2.53;;;17.00;93.20;;;;;;7402211;19;19919;-75
2023/03/18 10:37:41;;;;;;;11.85;2.38;;;17.10;93.20;;;;;;7365828;19;19910;-75
2023/03/18 10:40:14;;;;;;;13.63;3.05;;;16.90;93.00;;;;;;7395246;19;19918;-76
2023/03/18 10:42:41;;;;;;;16.00;3.42;;;16.40;93.60;;;;;;7398382;19;19957;-76
2023/03/18 10:45:24;;;;;;;13.48;2.50;;;16.40;93.90;;;;;;7397019;19;20248;-75
2023/03/18 10:47:59;;;;;;;14.18;2.45;;;16.30;93.90;;;;;;7403677;19;19986;-75
2023/03/18 10:50:31;;;;;;;19.08;3.33;;;16.60;93.70;;;;;;7350216;19;19925;-76
2023/03/18 10:53:22;;;;;;;15.88;5.00;;;16.80;93.50;;;;;;7405416;19;19922;-75
2023/03/18 10:56:06;;;;;;;25.75;6.50;;;16.90;93.10;;;;;;7398107;19;19940;-75
2023/03/18 10:58:33;;;;;;;13.52;3.40;;;16.80;93.10;;;;;;7401003;19;20265;-76
2023/03/18 11:00:59;;;;;;;;;;;16.80;93.00;;;;;;7402601;19;20347;-75
2023/03/18 11:03:32;;;;;;;11.75;2.28;;;16.80;93.00;;;;;;7398045;19;19918;-76
2023/03/18 11:06:01;;;;;;;13.05;2.85;;;16.80;93.10;;;;;;7381571;19;20338;-76
2023/03/18 11:08:36;;;;;;;10.75;2.28;;;16.70;93.10;;;;;;7400661;19;19922;-75
2023/03/18 11:11:26;;;;;;;14.13;2.35;;;16.70;93.20;;;;;;7400928;19;19926;-75
2023/03/18 11:13:55;;;;;;;13.82;3.13;;;16.50;93.30;;;;;;7399348;19;19927;-74
2023/03/18 11:16:38;;;;;;;15.07;2.40;;;16.50;93.50;;;;;;7400524;19;19942;-76
2023/03/18 11:19:21;;;;;;;15.85;2.67;;;16.50;93.60;;;;;;7403080;19;19929;-75
2023/03/18 11:21:47;;;;;;;16.83;3.38;;;16.50;93.70;;;;;;7404469;19;19921;-75
2023/03/18 11:24:35;;;;;;;16.50;3.00;;;16.30;94.00;;;;;;7402573;19;19929;-75
2023/03/18 11:27:01;;;;;;;15.68;3.85;;;16.30;94.10;;;;;;7402703;19;19926;-75
2023/03/18 11:29:32;;;;;;;15.98;3.53;;;16.10;95.00;;;;;;7403637;19;19915;-75
2023/03/18 11:32:00;;;;;;;13.65;2.42;;;15.90;95.90;;;;;;7401566;19;19915;-75
2023/03/18 11:34:34;;;;;;;16.05;2.67;;;15.60;96.20;;;;;;7401256;19;19918;-75
2023/03/18 11:37:07;;;;;;;16.83;2.50;;;15.40;97.10;;;;;;7400072;19;20232;-75
2023/03/18 11:39:40;;;;;;;16.38;3.35;;;15.30;97.60;;;;;;7369396;19;19919;-75
2023/03/18 11:42:21;;;;;;;14.20;3.47;;;15.20;98.50;;;;;;7395829;19;19913;-75
2023/03/18 11:44:53;;;;;;;17.08;2.35;;;15.20;98.70;;;;;;7401752;19;20394;-75
2023/03/18 11:47:25;;;;;;;22.98;4.20;;;15.20;99.00;;;;;;7398876;19;20328;-75
2023/03/18 11:49:50;;;;;;;20.40;2.92;;;15.00;99.40;;;;;;7401511;19;19915;-75
2023/03/18 11:52:19;;;;;;;14.45;3.38;;;15.10;99.30;;;;;;7400807;19;20363;-75
2023/03/18 11:54:45;;;;;;;17.95;3.85;;;15.00;99.40;;;;;;7406771;19;19919;-75
2023/03/18 11:57:41;;;;;;;17.80;2.95;;;15.20;99.30;;;;;;7407946;19;19916;-75
2023/03/18 12:00:36;;;;;;;18.48;3.50;;;15.30;99.20;;;;;;7404810;19;19919;-75
2023/03/18 12:03:23;;;;;;;21.63;4.40;;;15.40;99.20;;;;;;7408387;19;20343;-76
2023/03/18 12:05:50;;;;;;;20.58;3.67;;;15.60;98.80;;;;;;7386591;19;20323;-76
2023/03/18 12:08:22;;;;;;;16.27;3.25;;;15.70;98.60;;;;;;7403690;19;20276;-76
2023/03/18 12:11:09;;;;;;;14.43;3.58;;;16.00;98.10;;;;;;7407049;19;19925;-75
2023/03/18 12:13:49;;;;;;;14.32;4.15;;;16.30;97.60;;;;;;7404680;19;19927;-75
2023/03/18 12:16:27;;;;;;;13.05;2.72;;;16.60;96.80;;;;;;7405675;19;19915;-76
2023/03/18 12:19:06;;;;;;;14.40;2.78;;;17.50;95.30;;;;;;7407317;19;19917;-76
2023/03/18 12:21:34;;;;;;;15.52;3.65;;;17.90;93.40;;;;;;7401532;19;19926;-75
2023/03/18 12:24:18;;;;;;;17.90;3.10;;;18.60;92.80;;;;;;7408549;19;19919;-76
2023/03/18 12:27:15;;;;;;;16.17;3.53;;;18.60;92.20;;;;;;7405725;19;19914;-76
2023/03/18 12:29:56;;;;;;;16.33;3.78;;;19.70;90.80;;;;;;7402432;19;19921;-74
2023/03/18 12:32:47;;;;;;;17.33;3.72;;;19.60;90.50;;;;;;7406281;19;19929;-75
2023/03/18 12:35:41;;;;;;;17.10;3.92;;;19.00;91.00;;;;;;7404533;19;19930;-75
2023/03/18 12:38:41;;;;;;;18.15;3.65;;;20.00;90.00;;;;;;7405982;19;19931;-75
2023/03/18 12:41:16;;;;;;;16.40;3.53;;;20.30;87.60;;;;;;7405599;19;19957;-75
2023/03/18 12:44:03;;;;;;;16.65;4.25;;;21.50;85.70;;;;;;7404752;19;19922;-74
2023/03/18 12:46:39;;;;;;;18.58;4.22;;;21.00;83.20;;;;;;7405691;19;19943;-76
2023/03/18 12:49:04;;;;;;;13.57;3.35;;;21.80;82.90;;;;;;7406044;19;20324;-75
2023/03/18 12:51:49;;;;;;;16.08;3.78;;;21.70;81.30;;;;;;7405057;19;19911;-75
2023/03/18 12:54:22;;;;;;;14.13;3.67;;;22.50;80.50;;;;;;7373113;19;19918;-77